WEATHER DATA

YESTERDAY
Time Temp. Dewp. Hum. Wind dir Wind speed Wind gust Bar. 1h Prec. 24h Prec.
00:01 28 19.8 61 266 6.1 12.5 1014.5 0.0000 0.0000
00:11 27.7 19.5 61 282 4.4 11.7 1014.4 0.0000 0.0000
00:21 27.5 19.3 61 303 4.2 11.1 1014.4 0.0000 0.0000
00:28 27.4 19.5 62 290 4.2 13.3 1014.4 0.0000 0.0000
00:38 27.2 19.3 62 293 4.2 11.4 1014.2 0.0000 0.0000
00:48 27 19.1 62 299 4.2 11.4 1014 0.0000 0.0000
00:59 26.9 19 62 279 5 12.8 1014.1 0.0000 0.0000
01:08 26.7 19.1 63 286 4.7 11.7 1014.1 0.0000 0.0000
01:18 26.6 19 63 276 5.3 12.8 1013.8 0.0000 0.0000
01:29 26.5 18.9 63 279 5 12.8 1013.9 0.0000 0.0000
01:39 26.5 18.9 63 286 4.7 11.4 1013.8 0.0000 0.0000
01:49 26.5 18.9 63 278 5.3 12.2 1013.5 0.0000 0.0000
01:58 26.5 18.9 63 270 5.6 12.2 1013.7 0.0000 0.0000
02:09 26.4 18.5 62 270 5 13.1 1013.5 0.0000 0.0000
02:19 26.3 18.7 63 273 5.3 12.5 1013.4 0.0000 0.0000
02:29 26.3 18.7 63 290 4.4 11.1 1013.4 0.0000 0.0000
02:39 26.1 18.5 63 268 5.3 11.4 1013.5 0.0000 0.0000
02:44 26.1 18.5 63 282 4.7 14.4 1013.3 0.0000 0.0000
02:54 26 18.7 64 270 5.6 12.8 1013.8 0.0000 0.0000
03:03 25.9 18.6 64 300 4.2 11.1 1013.9 0.0000 0.0000
03:14 25.9 19.1 66 310 3.9 11.9 1013.9 0.0000 0.0000
03:24 26 19.6 68 324 3.6 5 1014.1 0.0000 0.0000
03:34 26.1 20.2 70 323 3.3 4.7 1014.3 0.0000 0.0000
03:44 26.4 20.7 71 323 3.6 5.3 1014 0.0000 0.0000
03:52 26.6 20.9 71 312 3.9 8.1 1014.1 0.0000 0.0000
04:02 26.6 20.4 69 304 3.9 8.6 1014.2 0.0000 0.0000
04:12 26.6 20.4 69 301 3.9 7.8 1014.2 0.0000 0.0000
04:22 26.5 20.1 68 315 3.6 7.8 1014.2 0.0000 0.0000
04:32 26.5 20.1 68 314 3.6 7.2 1014.3 0.0000 0.0000
04:43 26.5 20.1 68 315 3.6 7.5 1014.3 0.0000 0.0000
04:53 26.4 19.8 67 309 3.9 8.3 1014.4 0.0000 0.0000
05:02 26.2 19.6 67 292 4.4 9.4 1014.5 0.0000 0.0000
05:12 25.7 18.9 66 291 4.2 8.9 1014.8 0.0000 0.0000
05:23 25.3 18.7 67 291 4.2 10 1014.8 0.0000 0.0000
05:38 25 18.7 68 314 3.6 9.7 1014.8 0.0000 0.0000
05:48 25 18.4 67 303 3.9 9.2 1014.8 0.0000 0.0000
05:58 24.9 18.4 67 301 4.2 10 1014.9 0.0000 0.0000
06:08 24.8 18.3 67 302 3.9 11.4 1014.9 0.0000 0.0000
06:18 24.8 18.3 67 288 4.4 11.1 1014.9 0.0000 0.0000
06:29 24.9 18.4 67 266 5 10.6 1014.8 0.0000 0.0000
06:38 25 18.4 67 244 6.1 10.8 1014.6 0.0000 0.0000
06:48 25.2 18.6 67 231 7.2 11.1 1014.7 0.0000 0.0000
06:58 25.3 18.5 66 229 7.8 12.2 1014.6 0.0000 0.0000
07:09 25.4 18.6 66 228 8.3 11.9 1014.7 0.0000 0.0000
07:19 25.5 18.4 65 229 10.3 13.1 1014.7 0.0000 0.0000
07:28 25.7 18.6 65 230 10.8 13.6 1014.6 0.0000 0.0000
07:39 26 18.9 65 235 10 14.7 1014.5 0.0000 0.0000
07:50 26.3 18.7 63 234 10 13.9 1014.6 0.0000 0.0000
08:00 26.5 18.6 62 234 9.4 13.1 1014.5 0.0000 0.0000
08:09 26.8 19.2 63 238 8.6 13.1 1014.6 0.0000 0.0000
08:20 27.1 19.2 62 236 7.5 12.8 1014.6 0.0000 0.0000
08:30 27.5 19.6 62 242 6.9 12.2 1014.5 0.0000 0.0000
08:40 28 20 62 248 6.4 11.1 1014.3 0.0000 0.0000
08:49 28.5 20.5 62 245 6.1 11.1 1014.2 0.0000 0.0000
09:00 29 20.2 59 235 5.8 8.1 1014.3 0.0000 0.0000
09:10 29.7 20 56 234 5.3 7.8 1014 0.0000 0.0000
09:20 30.1 19.5 53 236 5.3 7.2 1014 0.0000 0.0000
09:31 30.8 19.5 51 235 5.3 8.1 1014 0.0000 0.0000
09:40 31.3 20.3 52 233 5.6 7.8 1014.1 0.0000 0.0000
09:50 31.7 19.3 48 232 5.6 7.2 1013.7 0.0000 0.0000
10:00 32.2 21.7 54 234 4.2 7.2 1014 0.0000 0.0000
10:11 32 22.1 56 241 5.3 7.5 1014.1 0.0000 0.0000
10:20 31.8 22.5 58 248 5.6 7.8 1014.2 0.0000 0.0000
10:30 31.6 22.3 58 247 5 8.6 1014.4 0.0000 0.0000
10:41 31.4 22.7 60 250 5 8.1 1014.5 0.0000 0.0000
10:51 31.4 22.4 59 250 5.3 8.3 1014.5 0.0000 0.0000
11:01 31.5 22.8 60 255 5.3 8.3 1014.6 0.0000 0.0000
11:10 31.6 23.4 62 263 5.6 8.3 1014.7 0.0000 0.0000
11:21 31.6 24 64 255 5.3 7.8 1014.6 0.0000 0.0000
11:26 31.6 24.2 65 251 5 11.1 1014.7 0.0000 0.0000
11:34 31.5 24.4 66 243 5 10.8 1014.6 0.0000 0.0000
11:44 31.2 24.3 67 243 4.2 6.9 1014.5 0.0000 0.0000
11:53 31.1 24.5 68 240 4.4 8.1 1014.6 0.0000 0.0000
12:05 30.9 24.5 69 238 4.7 10.8 1014.4 0.0000 0.0000
12:15 30.8 24.7 70 239 4.4 6.4 1014.5 0.0000 0.0000
12:26 30.8 24.7 70 241 4.2 6.9 1014.3 0.0000 0.0000
12:36 30.9 24.8 70 241 3.9 6.1 1014.5 0.0000 0.0000
12:45 30.9 24.8 70 243 4.2 6.9 1014.5 0.0000 0.0000
12:56 30.9 24.8 70 240 3.9 6.7 1014.4 0.0000 0.0000
13:06 30.9 24.8 70 240 4.2 7.2 1014.3 0.0000 0.0000
13:18 30.9 24.8 70 241 4.2 8.1 1014.3 0.0000 0.0000
13:28 30.9 24.8 70 240 4.4 7.5 1014.4 0.0000 0.0000
13:38 30.8 24.7 70 245 4.4 7.2 1014.4 0.0000 0.0000
13:48 30.8 24.7 70 238 4.4 7.5 1014.4 0.0000 0.0000
13:58 30.8 24.5 69 240 4.4 7.5 1014.3 0.0000 0.0000
14:08 30.8 24.2 68 241 4.4 7.2 1014.2 0.0000 0.0000
14:18 30.8 24.2 68 242 4.2 6.7 1014.3 0.0000 0.0000
14:29 30.9 24.1 67 239 4.4 7.5 1014.2 0.0000 0.0000
14:38 30.9 23.8 66 238 3.9 7.2 1014.2 0.0000 0.0000
14:48 31 23.6 65 242 4.4 7.2 1014 0.0000 0.0000
14:59 31.1 23.7 65 244 3.9 7.2 1014.1 0.0000 0.0000
15:09 31 23.4 64 240 3.9 6.1 1014.1 0.0000 0.0000
15:18 31 23.6 65 242 4.2 6.9 1014 0.0000 0.0000
15:29 31 24.2 67 244 4.7 8.3 1014.1 0.0000 0.0000
15:41 30.9 24.1 67 238 5.3 11.7 1014 0.0000 0.0000
15:51 30.8 24.2 68 237 5.3 7.8 1013.9 0.0000 0.0000
15:56 30.7 24.1 68 242 4.7 12.8 1013.9 0.0000 0.0000
16:06 30.6 24 68 244 5 11.9 1014 0.0000 0.0000
16:16 30.5 23.9 68 241 5.3 11.1 1013.9 0.0000 0.0000
16:27 30.4 23.8 68 243 4.7 12.5 1013.8 0.0000 0.0000
16:38 30.3 23.7 68 244 4.4 7.2 1013.6 0.0000 0.0000
16:46 30.3 24 69 246 5 11.7 1013.6 0.0000 0.0000
16:56 30.2 23.9 69 239 4.7 11.4 1013.6 0.0000 0.0000
17:06 30.1 24 70 242 4.7 11.1 1013.4 0.0000 0.0000
17:16 30 23.9 70 239 5.6 12.5 1013.4 0.0000 0.0000
17:26 29.9 24.1 71 239 6.1 12.2 1013.5 0.0000 0.0000
17:37 29.8 24 71 241 5.8 12.5 1013.5 0.0000 0.0000
17:46 29.8 24.2 72 254 6.1 12.5 1013.6 0.0000 0.0000
17:56 29.7 24.3 73 249 5.6 10.8 1013.5 0.0000 0.0000
18:07 29.6 24.2 73 250 5.3 12.5 1013.3 0.0000 0.0000
18:15 29.5 24.1 73 252 5.6 12.2 1013.4 0.0000 0.0000
18:29 29.3 24 73 256 5.6 11.1 1013.4 0.0000 0.0000
18:39 29.2 23.9 73 252 5.6 11.7 1013.5 0.0000 0.0000
18:49 29.2 23.9 73 244 5.6 13.1 1013.4 0.0000 0.0000
19:00 29.1 23.8 73 245 6.7 13.1 1013.6 0.0000 0.0000
19:05 29 23.7 73 242 6.7 14.4 1013.4 0.0000 0.0000
19:15 29 23.7 73 237 8.9 13.1 1013.7 0.0000 0.0000
19:24 28.9 23.6 73 234 8.3 11.9 1013.8 0.0000 0.0000
19:35 28.8 23.5 73 238 7.5 10.8 1013.8 0.0000 0.0000
19:45 28.7 23.4 73 239 6.9 10 1013.9 0.0000 0.0000
19:55 28.7 23.6 74 247 6.1 9.7 1014.2 0.0000 0.0000
20:05 28.6 23.5 74 253 5.3 8.6 1014.2 0.0000 0.0000
20:15 28.5 23.2 73 252 5.3 9.4 1014.4 0.0000 0.0000
20:25 28.5 23.4 74 260 5 6.9 1014.5 0.0000 0.0000
20:35 28.4 23.3 74 266 5 7.5 1014.4 0.0000 0.0000
20:46 28.4 23.3 74 288 4.4 6.7 1014.4 0.0000 0.0000
20:55 28.2 23.1 74 288 4.4 6.4 1014.6 0.0000 0.0000
21:06 28.1 22.8 73 293 4.2 6.7 1014.6 0.0000 0.0000
21:16 28.1 23 74 287 3.9 7.8 1014.7 0.0000 0.0000
21:27 28.1 22.8 73 302 3.3 6.4 1014.8 0.0000 0.0000
21:37 28.2 22.9 73 282 3.9 7.2 1014.8 0.0000 0.0000
21:46 28.2 22.9 73 289 3.9 7.8 1014.8 0.0000 0.0000
21:56 28.2 22.7 72 265 4.2 6.9 1015 0.0000 0.0000
22:07 28.2 22.7 72 289 3.9 8.3 1015 0.0000 0.0000
22:17 28.2 22.7 72 282 3.9 7.5 1015.1 0.0000 0.0000
22:27 28.2 22.9 73 293 3.9 8.3 1015.2 0.0000 0.0000
22:37 28.2 22.9 73 285 3.9 6.7 1015.1 0.0000 0.0000
22:47 28.2 22.9 73 296 3.3 6.1 1015.1 0.0000 0.0000
22:57 28.2 22.9 73 295 3.6 6.9 1015.3 0.0000 0.0000
23:07 28 22.7 73 287 3.9 8.6 1015.3 0.0000 0.0000
23:17 27.9 22.8 74 300 3.3 4.4 1015.3 0.0000 0.0000
23:27 27.8 22.7 74 300 3.6 6.4 1015.2 0.0000 0.0000
23:37 27.7 22.6 74 300 3.6 6.9 1015.2 0.0000 0.0000
23:48 27.7 22.6 74 299 3.6 6.7 1015.4 0.0000 0.0000
23:58 27.6 22.3 73 298 3.6 6.4 1015.2 0.0000

DAY STATISTIC

2022-07-05
TEMPERATURE
AVERAGE
28.6
HIGH
32.2
10:00
LOW
24.8
06:08
PRESSURE
AVERAGE
1014.3
HIGH
1015.4
23:48
LOW
1013.3
02:44
DEWPOINT
AVERAGE
21.8
HIGH
24.8
12:36
LOW
18.3
06:08
HUMIDITY
AVERAGE
67
HIGH
74
19:55
LOW
48
09:50
WIND SPEED
AVERAGE
5.1
HIGH
10.8
07:28
WIND GUST
AVERAGE
9.5
HIGH
14.7
07:39
WIND DIRECTION
PREVAILING
SW
46.2%
N
0.0
NE
0.0
E
0.0
SE
0.0
S
0.0
SW
46.2
W
33.8
NW
20.0
PRECIPITATION
RAIN HOUR
0.0
RAIN DAY
0.0
TEMPERATURE (°C)
LOW
24.8
HIGH
32.2
AVERAGE
28.6
PRESSURE (hpa)
LOW
1013.3
HIGH
1015.4
AVERAGE
1014.3
DEVICE